sensor_id;sensor_type;location;lat;lon;timestamp;temperature;humidity
36280;DHT22;22317;47.936;12.742;2022-11-03T00:01:54;6.00;60.80
36280;DHT22;22317;47.936;12.742;2022-11-03T00:04:21;6.00;60.80
36280;DHT22;22317;47.936;12.742;2022-11-03T00:06:49;6.10;60.90
36280;DHT22;22317;47.936;12.742;2022-11-03T00:09:16;6.10;60.90
36280;DHT22;22317;47.936;12.742;2022-11-03T00:11:44;6.00;60.60
36280;DHT22;22317;47.936;12.742;2022-11-03T00:14:10;6.10;60.70
36280;DHT22;22317;47.936;12.742;2022-11-03T00:16:37;6.00;60.60
36280;DHT22;22317;47.936;12.742;2022-11-03T00:19:04;6.00;60.70
36280;DHT22;22317;47.936;12.742;2022-11-03T00:21:30;6.00;60.70
36280;DHT22;22317;47.936;12.742;2022-11-03T00:23:56;6.00;61.30
36280;DHT22;22317;47.936;12.742;2022-11-03T00:26:26;6.00;61.30
36280;DHT22;22317;47.936;12.742;2022-11-03T00:28:54;5.90;60.70
36280;DHT22;22317;47.936;12.742;2022-11-03T00:31:22;5.90;60.70
36280;DHT22;22317;47.936;12.742;2022-11-03T00:33:49;5.90;61.30
36280;DHT22;22317;47.936;12.742;2022-11-03T00:36:19;5.80;61.20
36280;DHT22;22317;47.936;12.742;2022-11-03T00:38:45;5.80;61.30
36280;DHT22;22317;47.936;12.742;2022-11-03T00:41:12;5.80;60.70
36280;DHT22;22317;47.936;12.742;2022-11-03T00:43:38;5.80;61.30
36280;DHT22;22317;47.936;12.742;2022-11-03T00:46:05;5.70;61.30
36280;DHT22;22317;47.936;12.742;2022-11-03T00:48:32;5.70;61.30
36280;DHT22;22317;47.936;12.742;2022-11-03T00:51:05;5.70;60.90
36280;DHT22;22317;47.936;12.742;2022-11-03T00:53:34;5.60;61.40
36280;DHT22;22317;47.936;12.742;2022-11-03T00:56:00;5.70;61.50
36280;DHT22;22317;47.936;12.742;2022-11-03T00:58:27;5.60;61.40
36280;DHT22;22317;47.936;12.742;2022-11-03T01:01:00;5.60;61.00
36280;DHT22;22317;47.936;12.742;2022-11-03T01:03:26;5.60;61.60
36280;DHT22;22317;47.936;12.742;2022-11-03T01:05:52;5.60;61.50
36280;DHT22;22317;47.936;12.742;2022-11-03T01:08:36;5.60;61.60
36280;DHT22;22317;47.936;12.742;2022-11-03T01:13:53;5.80;61.70
36280;DHT22;22317;47.936;12.742;2022-11-03T01:16:19;5.60;61.60
36280;DHT22;22317;47.936;12.742;2022-11-03T01:18:45;5.50;61.50
36280;DHT22;22317;47.936;12.742;2022-11-03T01:21:11;5.60;61.00
36280;DHT22;22317;47.936;12.742;2022-11-03T01:23:36;5.50;61.50
36280;DHT22;22317;47.936;12.742;2022-11-03T01:26:10;5.50;61.60
36280;DHT22;22317;47.936;12.742;2022-11-03T01:28:38;5.50;61.50
36280;DHT22;22317;47.936;12.742;2022-11-03T01:31:10;5.50;61.00
36280;DHT22;22317;47.936;12.742;2022-11-03T01:33:37;5.50;61.60
36280;DHT22;22317;47.936;12.742;2022-11-03T01:36:03;5.50;61.00
36280;DHT22;22317;47.936;12.742;2022-11-03T01:38:33;5.50;61.60
36280;DHT22;22317;47.936;12.742;2022-11-03T01:41:00;5.50;61.00
36280;DHT22;22317;47.936;12.742;2022-11-03T01:43:26;5.50;61.50
36280;DHT22;22317;47.936;12.742;2022-11-03T01:46:05;5.50;61.50
36280;DHT22;22317;47.936;12.742;2022-11-03T01:48:34;5.50;61.60
36280;DHT22;22317;47.936;12.742;2022-11-03T01:51:02;5.50;61.10
36280;DHT22;22317;47.936;12.742;2022-11-03T01:53:30;5.50;61.60
36280;DHT22;22317;47.936;12.742;2022-11-03T01:55:57;5.40;61.50
36280;DHT22;22317;47.936;12.742;2022-11-03T01:58:28;5.40;61.30
36280;DHT22;22317;47.936;12.742;2022-11-03T02:00:57;5.40;61.00
36280;DHT22;22317;47.936;12.742;2022-11-03T02:03:25;5.30;61.50
36280;DHT22;22317;47.936;12.742;2022-11-03T02:05:51;5.30;61.40
36280;DHT22;22317;47.936;12.742;2022-11-03T02:08:29;5.30;61.50
36280;DHT22;22317;47.936;12.742;2022-11-03T02:10:56;5.20;60.90
36280;DHT22;22317;47.936;12.742;2022-11-03T02:13:25;5.30;61.50
36280;DHT22;22317;47.936;12.742;2022-11-03T02:15:58;5.50;61.60
36280;DHT22;22317;47.936;12.742;2022-11-03T02:18:30;5.80;61.70
36280;DHT22;22317;47.936;12.742;2022-11-03T02:23:44;5.30;61.30
36280;DHT22;22317;47.936;12.742;2022-11-03T02:26:14;5.30;61.30
36280;DHT22;22317;47.936;12.742;2022-11-03T02:28:41;5.20;61.30
36280;DHT22;22317;47.936;12.742;2022-11-03T02:31:30;5.20;60.80
36280;DHT22;22317;47.936;12.742;2022-11-03T02:36:40;5.20;60.80
36280;DHT22;22317;47.936;12.742;2022-11-03T02:39:12;5.20;61.30
36280;DHT22;22317;47.936;12.742;2022-11-03T02:41:39;5.10;60.80
36280;DHT22;22317;47.936;12.742;2022-11-03T02:44:17;5.10;61.50
36280;DHT22;22317;47.936;12.742;2022-11-03T02:46:45;5.10;61.50
36280;DHT22;22317;47.936;12.742;2022-11-03T02:49:13;5.10;61.50
36280;DHT22;22317;47.936;12.742;2022-11-03T02:51:39;5.10;61.00
36280;DHT22;22317;47.936;12.742;2022-11-03T02:54:19;5.10;61.60
36280;DHT22;22317;47.936;12.742;2022-11-03T02:56:54;5.10;61.50
36280;DHT22;22317;47.936;12.742;2022-11-03T02:59:38;5.10;61.70
36280;DHT22;22317;47.936;12.742;2022-11-03T03:02:12;5.10;61.00
36280;DHT22;22317;47.936;12.742;2022-11-03T03:04:41;5.10;61.50
36280;DHT22;22317;47.936;12.742;2022-11-03T03:07:33;5.10;61.70
36280;DHT22;22317;47.936;12.742;2022-11-03T03:10:06;5.10;61.00
36280;DHT22;22317;47.936;12.742;2022-11-03T03:12:35;5.00;61.50
36280;DHT22;22317;47.936;12.742;2022-11-03T03:21:02;5.00;61.00
36280;DHT22;22317;47.936;12.742;2022-11-03T03:23:34;4.90;61.60
36280;DHT22;22317;47.936;12.742;2022-11-03T03:26:12;4.90;61.70
36280;DHT22;22317;47.936;12.742;2022-11-03T03:29:19;4.90;61.70
36280;DHT22;22317;47.936;12.742;2022-11-03T03:31:52;4.90;61.20
36280;DHT22;22317;47.936;12.742;2022-11-03T03:34:20;4.90;61.70
36280;DHT22;22317;47.936;12.742;2022-11-03T03:36:48;4.80;61.80
36280;DHT22;22317;47.936;12.742;2022-11-03T03:39:17;4.90;61.90
36280;DHT22;22317;47.936;12.742;2022-11-03T03:41:46;4.90;61.40
36280;DHT22;22317;47.936;12.742;2022-11-03T03:44:13;4.80;61.90
36280;DHT22;22317;47.936;12.742;2022-11-03T03:46:51;4.80;61.90
36280;DHT22;22317;47.936;12.742;2022-11-03T03:49:17;4.80;62.10
36280;DHT22;22317;47.936;12.742;2022-11-03T03:51:45;4.80;61.50
36280;DHT22;22317;47.936;12.742;2022-11-03T03:54:11;4.80;62.00
36280;DHT22;22317;47.936;12.742;2022-11-03T03:56:50;4.80;62.10
36280;DHT22;22317;47.936;12.742;2022-11-03T03:59:20;4.80;62.30
36280;DHT22;22317;47.936;12.742;2022-11-03T04:01:45;4.70;61.70
36280;DHT22;22317;47.936;12.742;2022-11-03T04:04:11;4.70;62.40
36280;DHT22;22317;47.936;12.742;2022-11-03T04:06:37;4.80;62.60
36280;DHT22;22317;47.936;12.742;2022-11-03T04:09:02;4.80;62.70
36280;DHT22;22317;47.936;12.742;2022-11-03T04:11:28;4.80;62.10
36280;DHT22;22317;47.936;12.742;2022-11-03T04:14:12;4.80;62.50
36280;DHT22;22317;47.936;12.742;2022-11-03T04:16:56;4.80;62.60
36280;DHT22;22317;47.936;12.742;2022-11-03T04:19:41;4.70;62.60
36280;DHT22;22317;47.936;12.742;2022-11-03T04:22:42;4.70;62.10
36280;DHT22;22317;47.936;12.742;2022-11-03T04:25:08;4.90;62.80
36280;DHT22;22317;47.936;12.742;2022-11-03T04:27:36;4.70;62.80
36280;DHT22;22317;47.936;12.742;2022-11-03T04:32:34;4.70;63.20
36280;DHT22;22317;47.936;12.742;2022-11-03T04:35:00;4.80;63.30
36280;DHT22;22317;47.936;12.742;2022-11-03T04:37:28;5.00;63.50
36280;DHT22;22317;47.936;12.742;2022-11-03T04:39:58;4.90;62.90
36280;DHT22;22317;47.936;12.742;2022-11-03T04:42:25;4.90;63.40
36280;DHT22;22317;47.936;12.742;2022-11-03T04:44:51;4.90;63.30
36280;DHT22;22317;47.936;12.742;2022-11-03T04:47:17;4.80;63.20
36280;DHT22;22317;47.936;12.742;2022-11-03T04:49:44;4.80;62.80
36280;DHT22;22317;47.936;12.742;2022-11-03T04:52:16;4.80;62.80
36280;DHT22;22317;47.936;12.742;2022-11-03T04:54:42;4.80;63.20
36280;DHT22;22317;47.936;12.742;2022-11-03T04:57:13;4.80;63.20
36280;DHT22;22317;47.936;12.742;2022-11-03T04:59:40;4.80;63.10
36280;DHT22;22317;47.936;12.742;2022-11-03T05:02:14;4.70;62.60
36280;DHT22;22317;47.936;12.742;2022-11-03T05:04:41;4.70;63.20
36280;DHT22;22317;47.936;12.742;2022-11-03T05:07:20;4.70;63.20
36280;DHT22;22317;47.936;12.742;2022-11-03T05:09:47;4.60;62.70
36280;DHT22;22317;47.936;12.742;2022-11-03T05:12:12;4.60;62.70
36280;DHT22;22317;47.936;12.742;2022-11-03T05:14:38;4.60;63.30
36280;DHT22;22317;47.936;12.742;2022-11-03T05:17:26;4.60;63.30
36280;DHT22;22317;47.936;12.742;2022-11-03T05:19:58;4.50;62.60
36280;DHT22;22317;47.936;12.742;2022-11-03T05:22:30;4.60;63.20
36280;DHT22;22317;47.936;12.742;2022-11-03T05:25:02;4.50;63.30
36280;DHT22;22317;47.936;12.742;2022-11-03T05:27:28;4.60;63.30
36280;DHT22;22317;47.936;12.742;2022-11-03T05:29:56;4.60;62.70
36280;DHT22;22317;47.936;12.742;2022-11-03T05:32:28;4.50;63.20
36280;DHT22;22317;47.936;12.742;2022-11-03T05:34:55;4.50;63.20
36280;DHT22;22317;47.936;12.742;2022-11-03T05:37:28;4.40;63.20
36280;DHT22;22317;47.936;12.742;2022-11-03T05:40:05;4.40;62.70
36280;DHT22;22317;47.936;12.742;2022-11-03T05:42:40;4.40;63.20
36280;DHT22;22317;47.936;12.742;2022-11-03T05:47:45;4.40;63.20
36280;DHT22;22317;47.936;12.742;2022-11-03T05:50:21;4.30;62.70
36280;DHT22;22317;47.936;12.742;2022-11-03T05:52:49;4.30;63.20
36280;DHT22;22317;47.936;12.742;2022-11-03T05:55:25;4.30;63.30
36280;DHT22;22317;47.936;12.742;2022-11-03T05:57:54;4.30;62.80
36280;DHT22;22317;47.936;12.742;2022-11-03T06:00:41;4.30;63.40
36280;DHT22;22317;47.936;12.742;2022-11-03T06:03:17;4.30;63.40
36280;DHT22;22317;47.936;12.742;2022-11-03T06:05:46;4.30;63.40
36280;DHT22;22317;47.936;12.742;2022-11-03T06:08:15;4.30;63.40
36280;DHT22;22317;47.936;12.742;2022-11-03T06:10:47;4.30;62.90
36280;DHT22;22317;47.936;12.742;2022-11-03T06:15:57;4.30;63.40
36280;DHT22;22317;47.936;12.742;2022-11-03T06:18:32;4.30;63.40
36280;DHT22;22317;47.936;12.742;2022-11-03T06:21:20;4.30;62.90
36280;DHT22;22317;47.936;12.742;2022-11-03T06:23:47;4.30;63.50
36280;DHT22;22317;47.936;12.742;2022-11-03T06:26:23;4.30;63.40
36280;DHT22;22317;47.936;12.742;2022-11-03T06:28:50;4.30;62.80
36280;DHT22;22317;47.936;12.742;2022-11-03T06:31:25;4.30;62.90
36280;DHT22;22317;47.936;12.742;2022-11-03T06:33:52;4.30;63.50
36280;DHT22;22317;47.936;12.742;2022-11-03T06:36:26;4.40;63.60
36280;DHT22;22317;47.936;12.742;2022-11-03T06:41:30;4.50;63.10
36280;DHT22;22317;47.936;12.742;2022-11-03T06:43:59;4.50;63.50
36280;DHT22;22317;47.936;12.742;2022-11-03T06:48:54;4.60;62.90
36280;DHT22;22317;47.936;12.742;2022-11-03T06:51:24;4.60;63.00
36280;DHT22;22317;47.936;12.742;2022-11-03T06:53:53;4.70;63.00
36280;DHT22;22317;47.936;12.742;2022-11-03T06:56:24;4.80;63.60
36280;DHT22;22317;47.936;12.742;2022-11-03T06:58:55;4.80;63.60
36280;DHT22;22317;47.936;12.742;2022-11-03T07:01:24;4.90;63.20
36280;DHT22;22317;47.936;12.742;2022-11-03T07:04:02;5.00;63.70
36280;DHT22;22317;47.936;12.742;2022-11-03T07:06:31;5.00;63.60
36280;DHT22;22317;47.936;12.742;2022-11-03T07:09:00;5.20;63.90
36280;DHT22;22317;47.936;12.742;2022-11-03T07:11:31;5.10;63.20
36280;DHT22;22317;47.936;12.742;2022-11-03T07:16:43;5.20;63.90
36280;DHT22;22317;47.936;12.742;2022-11-03T07:21:45;5.40;63.50
36280;DHT22;22317;47.936;12.742;2022-11-03T07:24:15;5.40;64.10
36280;DHT22;22317;47.936;12.742;2022-11-03T07:26:42;5.50;63.70
36280;DHT22;22317;47.936;12.742;2022-11-03T07:29:22;5.60;64.30
36280;DHT22;22317;47.936;12.742;2022-11-03T07:31:51;5.70;63.60
36280;DHT22;22317;47.936;12.742;2022-11-03T07:34:21;5.70;63.40
36280;DHT22;22317;47.936;12.742;2022-11-03T07:36:49;5.80;63.90
36280;DHT22;22317;47.936;12.742;2022-11-03T07:39:19;5.80;64.00
36280;DHT22;22317;47.936;12.742;2022-11-03T07:41:46;5.90;63.50
36280;DHT22;22317;47.936;12.742;2022-11-03T07:44:17;6.00;64.10
36280;DHT22;22317;47.936;12.742;2022-11-03T07:46:45;6.00;64.20
36280;DHT22;22317;47.936;12.742;2022-11-03T07:49:28;6.00;64.10
36280;DHT22;22317;47.936;12.742;2022-11-03T07:51:56;6.10;63.90
36280;DHT22;22317;47.936;12.742;2022-11-03T07:54:27;6.20;64.40
36280;DHT22;22317;47.936;12.742;2022-11-03T07:56:55;6.30;64.40
36280;DHT22;22317;47.936;12.742;2022-11-03T08:01:59;6.40;64.00
36280;DHT22;22317;47.936;12.742;2022-11-03T08:04:30;6.40;64.50
36280;DHT22;22317;47.936;12.742;2022-11-03T08:06:57;6.60;64.60
36280;DHT22;22317;47.936;12.742;2022-11-03T08:09:23;6.60;64.70
36280;DHT22;22317;47.936;12.742;2022-11-03T08:11:49;6.70;64.10
36280;DHT22;22317;47.936;12.742;2022-11-03T08:14:15;6.80;64.60
36280;DHT22;22317;47.936;12.742;2022-11-03T08:16:41;6.90;64.60
36280;DHT22;22317;47.936;12.742;2022-11-03T08:19:07;6.90;63.80
36280;DHT22;22317;47.936;12.742;2022-11-03T08:21:33;7.10;63.90
36280;DHT22;22317;47.936;12.742;2022-11-03T08:23:59;7.20;64.50
36280;DHT22;22317;47.936;12.742;2022-11-03T08:26:25;7.20;64.20
36280;DHT22;22317;47.936;12.742;2022-11-03T08:28:50;7.30;64.00
36280;DHT22;22317;47.936;12.742;2022-11-03T08:33:42;7.30;63.30
36280;DHT22;22317;47.936;12.742;2022-11-03T08:36:09;7.40;63.90
36280;DHT22;22317;47.936;12.742;2022-11-03T08:38:35;7.40;63.90
36280;DHT22;22317;47.936;12.742;2022-11-03T08:41:01;7.50;63.20
36280;DHT22;22317;47.936;12.742;2022-11-03T08:43:27;7.50;63.70
36280;DHT22;22317;47.936;12.742;2022-11-03T08:45:52;7.50;63.80
36280;DHT22;22317;47.936;12.742;2022-11-03T08:48:20;7.60;63.80
36280;DHT22;22317;47.936;12.742;2022-11-03T08:50:46;7.60;63.10
36280;DHT22;22317;47.936;12.742;2022-11-03T08:53:12;7.70;63.60
36280;DHT22;22317;47.936;12.742;2022-11-03T08:55:38;7.70;63.60
36280;DHT22;22317;47.936;12.742;2022-11-03T08:58:04;7.60;63.00
36280;DHT22;22317;47.936;12.742;2022-11-03T09:00:29;7.70;63.10
36280;DHT22;22317;47.936;12.742;2022-11-03T09:02:55;7.70;63.70
36280;DHT22;22317;47.936;12.742;2022-11-03T09:05:21;7.70;63.80
36280;DHT22;22317;47.936;12.742;2022-11-03T09:07:46;7.70;63.90
36280;DHT22;22317;47.936;12.742;2022-11-03T09:10:12;7.80;63.40
36280;DHT22;22317;47.936;12.742;2022-11-03T09:12:38;7.80;63.90
36280;DHT22;22317;47.936;12.742;2022-11-03T09:15:05;7.90;64.00
36280;DHT22;22317;47.936;12.742;2022-11-03T09:17:31;7.90;64.00
36280;DHT22;22317;47.936;12.742;2022-11-03T09:19:57;7.90;63.40
36280;DHT22;22317;47.936;12.742;2022-11-03T09:22:23;7.90;63.40
36280;DHT22;22317;47.936;12.742;2022-11-03T09:24:48;7.90;63.90
36280;DHT22;22317;47.936;12.742;2022-11-03T09:27:14;8.00;64.00
36280;DHT22;22317;47.936;12.742;2022-11-03T09:29:40;8.00;64.00
36280;DHT22;22317;47.936;12.742;2022-11-03T09:32:05;8.10;63.40
36280;DHT22;22317;47.936;12.742;2022-11-03T09:34:32;8.20;64.10
36280;DHT22;22317;47.936;12.742;2022-11-03T09:36:58;8.30;64.10
36280;DHT22;22317;47.936;12.742;2022-11-03T09:39:24;8.30;63.90
36280;DHT22;22317;47.936;12.742;2022-11-03T09:41:50;8.40;63.10
36280;DHT22;22317;47.936;12.742;2022-11-03T09:44:18;8.50;63.60
36280;DHT22;22317;47.936;12.742;2022-11-03T09:46:44;8.40;63.40
36280;DHT22;22317;47.936;12.742;2022-11-03T09:49:13;8.50;63.40
36280;DHT22;22317;47.936;12.742;2022-11-03T09:51:40;8.50;62.70
36280;DHT22;22317;47.936;12.742;2022-11-03T09:54:12;8.50;63.20
36280;DHT22;22317;47.936;12.742;2022-11-03T09:56:39;8.60;63.20
36280;DHT22;22317;47.936;12.742;2022-11-03T09:59:14;8.60;63.00
36280;DHT22;22317;47.936;12.742;2022-11-03T10:01:41;8.70;62.30
36280;DHT22;22317;47.936;12.742;2022-11-03T10:04:12;8.70;62.90
36280;DHT22;22317;47.936;12.742;2022-11-03T10:06:39;8.70;62.80
36280;DHT22;22317;47.936;12.742;2022-11-03T10:09:06;8.80;62.20
36280;DHT22;22317;47.936;12.742;2022-11-03T10:11:34;8.80;61.80
36280;DHT22;22317;47.936;12.742;2022-11-03T10:14:01;8.80;62.20
36280;DHT22;22317;47.936;12.742;2022-11-03T10:16:26;8.70;62.20
36280;DHT22;22317;47.936;12.742;2022-11-03T10:18:53;8.80;62.30
36280;DHT22;22317;47.936;12.742;2022-11-03T10:21:26;8.80;61.90
36280;DHT22;22317;47.936;12.742;2022-11-03T10:23:54;8.90;62.40
36280;DHT22;22317;47.936;12.742;2022-11-03T10:26:20;9.00;62.50
36280;DHT22;22317;47.936;12.742;2022-11-03T10:29:02;9.10;62.30
36280;DHT22;22317;47.936;12.742;2022-11-03T10:31:42;9.20;61.50
36280;DHT22;22317;47.936;12.742;2022-11-03T10:34:32;9.20;62.00
36280;DHT22;22317;47.936;12.742;2022-11-03T10:39:42;9.30;61.70
36280;DHT22;22317;47.936;12.742;2022-11-03T10:42:17;9.40;61.00
36280;DHT22;22317;47.936;12.742;2022-11-03T10:44:44;9.40;61.60
36280;DHT22;22317;47.936;12.742;2022-11-03T10:47:25;9.40;61.60
36280;DHT22;22317;47.936;12.742;2022-11-03T10:49:51;9.40;60.70
36280;DHT22;22317;47.936;12.742;2022-11-03T10:52:22;9.40;61.30
36280;DHT22;22317;47.936;12.742;2022-11-03T10:54:49;9.40;61.40
36280;DHT22;22317;47.936;12.742;2022-11-03T10:57:16;9.50;61.50
36280;DHT22;22317;47.936;12.742;2022-11-03T10:59:44;9.50;61.40
36280;DHT22;22317;47.936;12.742;2022-11-03T11:02:22;9.50;60.70
36280;DHT22;22317;47.936;12.742;2022-11-03T11:05:07;9.50;60.40
36280;DHT22;22317;47.936;12.742;2022-11-03T11:07:39;9.50;61.00
36280;DHT22;22317;47.936;12.742;2022-11-03T11:10:19;9.60;61.00
36280;DHT22;22317;47.936;12.742;2022-11-03T11:18:09;9.80;61.40
36280;DHT22;22317;47.936;12.742;2022-11-03T11:20:39;9.90;60.40
36280;DHT22;22317;47.936;12.742;2022-11-03T11:28:34;10.00;60.80
36280;DHT22;22317;47.936;12.742;2022-11-03T11:33:28;10.00;60.00
36280;DHT22;22317;47.936;12.742;2022-11-03T11:41:20;10.30;60.10
36280;DHT22;22317;47.936;12.742;2022-11-03T11:43:46;10.40;60.90
36280;DHT22;22317;47.936;12.742;2022-11-03T11:51:22;11.90;61.70
36280;DHT22;22317;47.936;12.742;2022-11-03T11:53:48;12.40;62.10
36280;DHT22;22317;47.936;12.742;2022-11-03T11:56:16;13.30;61.60
36280;DHT22;22317;47.936;12.742;2022-11-03T11:58:51;14.30;60.70
36280;DHT22;22317;47.936;12.742;2022-11-03T12:01:34;15.90;58.30
36280;DHT22;22317;47.936;12.742;2022-11-03T12:04:07;16.60;57.30
36280;DHT22;22317;47.936;12.742;2022-11-03T12:06:40;17.70;55.70
36280;DHT22;22317;47.936;12.742;2022-11-03T12:09:17;18.60;54.70
36280;DHT22;22317;47.936;12.742;2022-11-03T12:11:51;19.50;52.60
36280;DHT22;22317;47.936;12.742;2022-11-03T12:16:57;21.00;65.90
36280;DHT22;22317;47.936;12.742;2022-11-03T12:22:48;21.30;66.00
36280;DHT22;22317;47.936;12.742;2022-11-03T12:24:56;21.70;45.10
36280;DHT22;22317;47.936;12.742;2022-11-03T12:29:55;22.70;60.90
36280;DHT22;22317;47.936;12.742;2022-11-03T12:32:21;23.20;58.80
36280;DHT22;22317;47.936;12.742;2022-11-03T12:37:13;23.60;72.10
36280;DHT22;22317;47.936;12.742;2022-11-03T12:39:39;24.10;39.80
36280;DHT22;22317;47.936;12.742;2022-11-03T12:42:05;24.70;39.50
36280;DHT22;22317;47.936;12.742;2022-11-03T12:44:31;25.10;38.60
36280;DHT22;22317;47.936;12.742;2022-11-03T12:46:57;25.50;37.50
36280;DHT22;22317;47.936;12.742;2022-11-03T12:49:23;25.60;36.70
36280;DHT22;22317;47.936;12.742;2022-11-03T12:54:16;26.10;35.30
36280;DHT22;22317;47.936;12.742;2022-11-03T12:56:41;26.40;35.40
36280;DHT22;22317;47.936;12.742;2022-11-03T12:59:07;26.60;34.50
36280;DHT22;22317;47.936;12.742;2022-11-03T13:01:33;26.60;34.00
36280;DHT22;22317;47.936;12.742;2022-11-03T13:03:59;26.30;33.30
36280;DHT22;22317;47.936;12.742;2022-11-03T13:06:25;26.00;33.50
36280;DHT22;22317;47.936;12.742;2022-11-03T13:08:51;26.10;33.80
36280;DHT22;22317;47.936;12.742;2022-11-03T13:11:17;26.40;33.70
36280;DHT22;22317;47.936;12.742;2022-11-03T13:14:01;26.70;33.50
36280;DHT22;22317;47.936;12.742;2022-11-03T13:16:29;27.30;33.40
36280;DHT22;22317;47.936;12.742;2022-11-03T13:18:54;27.90;32.70
36280;DHT22;22317;47.936;12.742;2022-11-03T13:21:20;28.20;32.00
36280;DHT22;22317;47.936;12.742;2022-11-03T13:23:46;28.20;31.70
36280;DHT22;22317;47.936;12.742;2022-11-03T13:26:12;28.30;31.10
36280;DHT22;22317;47.936;12.742;2022-11-03T13:28:38;28.30;30.80
36280;DHT22;22317;47.936;12.742;2022-11-03T13:31:03;28.20;30.70
36280;DHT22;22317;47.936;12.742;2022-11-03T13:33:29;28.10;30.40
36280;DHT22;22317;47.936;12.742;2022-11-03T13:35:55;27.70;30.40
36280;DHT22;22317;47.936;12.742;2022-11-03T13:38:20;27.50;30.50
36280;DHT22;22317;47.936;12.742;2022-11-03T13:40:46;27.10;30.50
36280;DHT22;22317;47.936;12.742;2022-11-03T13:43:12;26.80;30.00
36280;DHT22;22317;47.936;12.742;2022-11-03T13:45:38;26.70;31.50
36280;DHT22;22317;47.936;12.742;2022-11-03T13:48:03;26.60;31.50
36280;DHT22;22317;47.936;12.742;2022-11-03T13:50:29;26.70;31.40
36280;DHT22;22317;47.936;12.742;2022-11-03T13:52:55;26.90;31.10
36280;DHT22;22317;47.936;12.742;2022-11-03T13:55:21;27.20;31.10
36280;DHT22;22317;47.936;12.742;2022-11-03T13:57:47;25.60;29.50
36280;DHT22;22317;47.936;12.742;2022-11-03T14:00:13;27.50;30.20
36280;DHT22;22317;47.936;12.742;2022-11-03T14:02:41;27.40;29.90
36280;DHT22;22317;47.936;12.742;2022-11-03T14:05:08;27.30;29.80
36280;DHT22;22317;47.936;12.742;2022-11-03T14:07:34;27.20;29.80
36280;DHT22;22317;47.936;12.742;2022-11-03T14:10:00;27.00;29.90
36280;DHT22;22317;47.936;12.742;2022-11-03T14:12:26;26.70;30.00
36280;DHT22;22317;47.936;12.742;2022-11-03T14:15:04;26.30;29.40
36280;DHT22;22317;47.936;12.742;2022-11-03T14:17:32;25.80;30.00
36280;DHT22;22317;47.936;12.742;2022-11-03T14:19:57;25.30;30.50
36280;DHT22;22317;47.936;12.742;2022-11-03T14:22:23;24.70;31.20
36280;DHT22;22317;47.936;12.742;2022-11-03T14:24:50;24.20;31.20
36280;DHT22;22317;47.936;12.742;2022-11-03T14:27:17;23.70;31.80
36280;DHT22;22317;47.936;12.742;2022-11-03T14:29:43;23.00;32.40
36280;DHT22;22317;47.936;12.742;2022-11-03T14:32:09;22.80;32.30
36280;DHT22;22317;47.936;12.742;2022-11-03T14:34:35;22.20;33.10
36280;DHT22;22317;47.936;12.742;2022-11-03T14:37:01;21.80;34.10
36280;DHT22;22317;47.936;12.742;2022-11-03T14:39:27;21.40;34.60
36280;DHT22;22317;47.936;12.742;2022-11-03T14:41:53;20.80;35.60
36280;DHT22;22317;47.936;12.742;2022-11-03T14:44:32;20.60;34.60
36280;DHT22;22317;47.936;12.742;2022-11-03T14:46:58;19.90;34.60
36280;DHT22;22317;47.936;12.742;2022-11-03T14:49:26;19.70;37.50
36280;DHT22;22317;47.936;12.742;2022-11-03T14:51:52;19.10;37.60
36280;DHT22;22317;47.936;12.742;2022-11-03T14:54:18;18.70;39.20
36280;DHT22;22317;47.936;12.742;2022-11-03T14:56:43;18.50;39.60
36280;DHT22;22317;47.936;12.742;2022-11-03T14:59:09;18.30;40.60
36280;DHT22;22317;47.936;12.742;2022-11-03T15:01:35;17.90;42.30
36280;DHT22;22317;47.936;12.742;2022-11-03T15:04:02;17.40;37.60
36280;DHT22;22317;47.936;12.742;2022-11-03T15:06:28;17.10;38.80
36280;DHT22;22317;47.936;12.742;2022-11-03T15:08:53;17.00;43.90
36280;DHT22;22317;47.936;12.742;2022-11-03T15:13:45;16.40;65.80
36280;DHT22;22317;47.936;12.742;2022-11-03T15:58:26;10.70;76.50
36280;DHT22;22317;47.936;12.742;2022-11-03T16:00:52;11.30;69.70
36280;DHT22;22317;47.936;12.742;2022-11-03T16:03:18;11.00;69.60
36280;DHT22;22317;47.936;12.742;2022-11-03T16:05:44;11.70;69.40
36280;DHT22;22317;47.936;12.742;2022-11-03T16:08:09;11.40;69.10
36280;DHT22;22317;47.936;12.742;2022-11-03T16:10:35;11.50;71.00
36280;DHT22;22317;47.936;12.742;2022-11-03T16:13:01;11.30;71.20
36280;DHT22;22317;47.936;12.742;2022-11-03T16:15:26;11.50;74.00
36280;DHT22;22317;47.936;12.742;2022-11-03T16:17:52;10.90;73.10
36280;DHT22;22317;47.936;12.742;2022-11-03T16:20:18;11.50;74.30
36280;DHT22;22317;47.936;12.742;2022-11-03T16:22:45;11.20;74.30
36280;DHT22;22317;47.936;12.742;2022-11-03T16:25:11;11.20;73.90
36280;DHT22;22317;47.936;12.742;2022-11-03T16:27:36;11.30;73.70
36280;DHT22;22317;47.936;12.742;2022-11-03T16:30:02;11.20;73.60
36280;DHT22;22317;47.936;12.742;2022-11-03T16:32:28;11.00;72.70
36280;DHT22;22317;47.936;12.742;2022-11-03T16:37:20;10.50;72.30
36280;DHT22;22317;47.936;12.742;2022-11-03T16:39:46;10.90;73.50
36280;DHT22;22317;47.936;12.742;2022-11-03T16:42:12;10.20;73.50
36280;DHT22;22317;47.936;12.742;2022-11-03T16:44:38;10.70;75.20
36280;DHT22;22317;47.936;12.742;2022-11-03T16:47:03;10.70;77.20
36280;DHT22;22317;47.936;12.742;2022-11-03T16:49:29;10.70;77.90
36280;DHT22;22317;47.936;12.742;2022-11-03T16:51:55;10.60;76.80
36280;DHT22;22317;47.936;12.742;2022-11-03T16:54:21;10.60;77.40
36280;DHT22;22317;47.936;12.742;2022-11-03T16:56:47;10.00;77.30
36280;DHT22;22317;47.936;12.742;2022-11-03T16:59:13;9.80;79.30
36280;DHT22;22317;47.936;12.742;2022-11-03T17:04:04;9.80;90.20
36280;DHT22;22317;47.936;12.742;2022-11-03T17:06:30;10.30;71.40
36280;DHT22;22317;47.936;12.742;2022-11-03T17:11:22;9.90;75.90
36280;DHT22;22317;47.936;12.742;2022-11-03T17:14:07;10.20;74.10
36280;DHT22;22317;47.936;12.742;2022-11-03T17:16:37;10.20;79.70
36280;DHT22;22317;47.936;12.742;2022-11-03T17:19:04;10.10;79.70
36280;DHT22;22317;47.936;12.742;2022-11-03T17:21:29;9.80;79.50
36280;DHT22;22317;47.936;12.742;2022-11-03T17:23:56;10.10;80.70
36280;DHT22;22317;47.936;12.742;2022-11-03T17:26:32;10.00;78.20
36280;DHT22;22317;47.936;12.742;2022-11-03T17:28:59;9.90;79.50
36280;DHT22;22317;47.936;12.742;2022-11-03T17:31:25;9.60;78.40
36280;DHT22;22317;47.936;12.742;2022-11-03T17:33:51;10.10;80.30
36280;DHT22;22317;47.936;12.742;2022-11-03T17:36:17;11.50;81.30
36280;DHT22;22317;47.936;12.742;2022-11-03T17:38:43;9.90;77.90
36280;DHT22;22317;47.936;12.742;2022-11-03T17:41:09;9.40;78.40
36280;DHT22;22317;47.936;12.742;2022-11-03T17:43:39;9.30;80.30
36280;DHT22;22317;47.936;12.742;2022-11-03T17:46:06;9.80;80.50
36280;DHT22;22317;47.936;12.742;2022-11-03T17:48:32;9.70;81.20